createdAt,value
2023-02-02T00:00:52.495Z,9.40
2023-02-02T00:03:19.251Z,11.35
2023-02-02T00:05:49.949Z,6.32
2023-02-02T00:08:18.126Z,7.68
2023-02-02T00:10:45.716Z,4.95
2023-02-02T00:13:13.303Z,6.45
2023-02-02T00:15:40.574Z,7.90
2023-02-02T00:18:08.018Z,6.45
2023-02-02T00:20:34.829Z,4.97
2023-02-02T00:23:01.837Z,5.65
2023-02-02T00:25:28.815Z,6.43
2023-02-02T00:27:55.867Z,3.75
2023-02-02T00:30:23.069Z,6.32
2023-02-02T00:32:52.363Z,8.88
2023-02-02T00:35:19.914Z,4.72
2023-02-02T00:37:46.535Z,6.45
2023-02-02T00:40:13.350Z,5.90
2023-02-02T00:42:40.017Z,4.20
2023-02-02T00:45:16.106Z,5.13
2023-02-02T00:47:44.553Z,5.85
2023-02-02T00:50:13.891Z,5.80
2023-02-02T00:52:40.573Z,7.82
2023-02-02T00:55:08.515Z,9.00
2023-02-02T00:57:35.206Z,6.22
2023-02-02T01:00:02.273Z,8.68
2023-02-02T01:02:28.941Z,3.20
2023-02-02T01:04:55.576Z,9.50
2023-02-02T01:07:22.223Z,11.40
2023-02-02T01:09:48.952Z,5.45
2023-02-02T01:12:15.635Z,5.32
2023-02-02T01:14:42.239Z,7.03
2023-02-02T01:17:09.292Z,6.32
2023-02-02T01:19:35.949Z,6.28
2023-02-02T01:22:03.597Z,4.22
2023-02-02T01:24:30.448Z,3.83
2023-02-02T01:26:57.189Z,4.57
2023-02-02T01:29:24.007Z,6.97
2023-02-02T01:31:51.699Z,3.25
2023-02-02T01:34:18.462Z,6.78
2023-02-02T01:36:45.460Z,3.42
2023-02-02T01:39:12.146Z,6.97
2023-02-02T01:41:41.056Z,9.63
2023-02-02T01:44:46.345Z,8.70
2023-02-02T01:47:14.306Z,11.43
2023-02-02T01:49:41.873Z,5.93
2023-02-02T01:52:11.269Z,7.28
2023-02-02T01:54:42.888Z,5.35
2023-02-02T01:57:21.023Z,5.20
2023-02-02T01:59:48.725Z,8.00
2023-02-02T02:02:15.959Z,8.00
2023-02-02T02:04:43.790Z,7.68
2023-02-02T02:07:11.725Z,6.95
2023-02-02T02:09:38.426Z,9.70
2023-02-02T02:12:13.409Z,7.95
2023-02-02T02:14:58.590Z,8.77
2023-02-02T02:17:49.998Z,6.85
2023-02-02T02:21:08.857Z,10.10
2023-02-02T02:24:24.461Z,5.63
2023-02-02T02:27:06.016Z,8.15
2023-02-02T02:29:57.734Z,5.22
2023-02-02T02:35:10.300Z,2.40
2023-02-02T02:37:58.383Z,2.42
2023-02-02T02:40:42.818Z,8.20
2023-02-02T02:43:18.659Z,3.72
2023-02-02T02:45:45.648Z,4.38
2023-02-02T02:48:12.372Z,8.60
2023-02-02T02:50:39.392Z,6.55
2023-02-02T02:53:11.360Z,5.53
2023-02-02T02:56:05.203Z,10.32
2023-02-02T02:58:50.774Z,7.80
2023-02-02T03:01:28.558Z,6.45
2023-02-02T03:04:16.872Z,6.47
2023-02-02T03:07:10.142Z,5.20
2023-02-02T03:09:41.693Z,3.80
2023-02-02T03:12:08.694Z,6.18
2023-02-02T03:14:37.009Z,6.57
2023-02-02T03:17:04.116Z,3.65
2023-02-02T03:19:31.086Z,8.90
2023-02-02T03:21:57.744Z,6.40
2023-02-02T03:24:24.494Z,3.58
2023-02-02T03:26:51.885Z,2.83
2023-02-02T03:29:19.035Z,7.00
2023-02-02T03:31:47.192Z,6.10
2023-02-02T03:34:13.945Z,4.45
2023-02-02T03:36:40.586Z,7.72
2023-02-02T03:39:07.276Z,5.43
2023-02-02T03:41:33.923Z,9.13
2023-02-02T03:44:00.559Z,5.20
2023-02-02T03:46:27.880Z,5.95
2023-02-02T03:48:54.554Z,7.60
2023-02-02T03:51:21.258Z,6.60
2023-02-02T03:53:48.063Z,4.50
2023-02-02T03:56:15.692Z,5.95
2023-02-02T03:58:42.360Z,7.22
2023-02-02T04:01:12.848Z,14.88
2023-02-02T04:03:39.511Z,5.95
2023-02-02T04:06:06.331Z,6.72
2023-02-02T04:08:34.119Z,3.15
2023-02-02T04:11:00.931Z,6.85
2023-02-02T04:13:27.752Z,5.70
2023-02-02T04:15:59.951Z,5.47
2023-02-02T04:18:27.465Z,5.53
2023-02-02T04:20:58.946Z,7.10
2023-02-02T04:23:26.412Z,6.15
2023-02-02T04:25:53.065Z,6.65
2023-02-02T04:28:20.545Z,3.95
2023-02-02T04:30:47.207Z,8.70
2023-02-02T04:33:13.920Z,8.27
2023-02-02T04:35:40.628Z,2.78
2023-02-02T04:38:07.353Z,4.70
2023-02-02T04:40:34.353Z,9.90
2023-02-02T04:43:01.053Z,5.88
2023-02-02T04:45:28.039Z,11.30
2023-02-02T04:47:54.900Z,3.40
2023-02-02T04:50:21.649Z,6.28
2023-02-02T04:52:48.281Z,6.00
2023-02-02T04:55:15.358Z,6.40
2023-02-02T04:57:42.095Z,10.90
2023-02-02T05:00:11.514Z,5.72
2023-02-02T05:02:40.982Z,6.85
2023-02-02T05:05:11.019Z,6.70
2023-02-02T05:07:37.805Z,4.88
2023-02-02T05:10:05.057Z,14.43
2023-02-02T05:12:31.775Z,6.63
2023-02-02T05:15:01.030Z,5.13
2023-02-02T05:17:28.247Z,4.88
2023-02-02T05:19:54.875Z,6.03
2023-02-02T05:22:21.619Z,4.28
2023-02-02T05:24:48.296Z,7.63
2023-02-02T05:27:14.902Z,9.13
2023-02-02T05:29:41.572Z,6.93
2023-02-02T05:32:08.316Z,10.15
2023-02-02T05:34:34.951Z,4.68
2023-02-02T05:37:01.681Z,5.30
2023-02-02T05:39:28.333Z,7.97
2023-02-02T05:41:54.981Z,19.45
2023-02-02T05:44:21.668Z,6.65
2023-02-02T05:46:48.288Z,2.90
2023-02-02T05:49:15.278Z,4.55
2023-02-02T05:51:46.839Z,7.50
2023-02-02T05:54:17.292Z,5.75
2023-02-02T05:56:43.905Z,9.65
2023-02-02T05:59:10.566Z,6.93
2023-02-02T06:01:37.222Z,8.57
2023-02-02T06:04:04.004Z,8.70
2023-02-02T06:06:30.702Z,6.95
2023-02-02T06:08:57.331Z,6.93
2023-02-02T06:11:24.005Z,9.60
2023-02-02T06:13:50.666Z,6.20
2023-02-02T06:16:17.406Z,7.32
2023-02-02T06:18:45.113Z,4.18
2023-02-02T06:21:12.215Z,6.55
2023-02-02T06:23:41.139Z,7.18
2023-02-02T06:26:08.251Z,9.57
2023-02-02T06:28:34.941Z,5.30
2023-02-02T06:31:10.960Z,5.97
2023-02-02T06:33:41.944Z,6.47
2023-02-02T06:36:08.662Z,7.50
2023-02-02T06:38:35.373Z,3.55
2023-02-02T06:41:02.975Z,3.88
2023-02-02T06:43:30.325Z,6.80
2023-02-02T06:46:00.225Z,5.40
2023-02-02T06:48:27.559Z,7.15
2023-02-02T06:50:54.340Z,4.53
2023-02-02T06:53:23.165Z,3.80
2023-02-02T06:55:54.797Z,5.03
2023-02-02T06:58:21.576Z,4.57
2023-02-02T07:00:48.250Z,3.22
2023-02-02T07:03:21.373Z,5.18
2023-02-02T07:05:49.295Z,3.97
2023-02-02T07:08:16.388Z,6.88
2023-02-02T07:11:14.155Z,6.38
2023-02-02T07:13:31.140Z,5.70
2023-02-02T07:15:58.255Z,6.72
2023-02-02T07:18:25.161Z,2.95
2023-02-02T07:20:51.863Z,3.85
2023-02-02T07:23:18.512Z,4.40
2023-02-02T07:25:45.158Z,5.30
2023-02-02T07:28:11.798Z,2.72
2023-02-02T07:30:38.602Z,3.03
2023-02-02T07:33:05.239Z,4.15
2023-02-02T07:35:31.966Z,5.05
2023-02-02T07:37:58.665Z,2.97
2023-02-02T07:40:25.342Z,4.35
2023-02-02T07:42:52.053Z,1.52
2023-02-02T07:45:27.333Z,1.63
2023-02-02T07:48:00.578Z,3.30
2023-02-02T07:50:28.843Z,6.88
2023-02-02T07:52:55.851Z,3.00
2023-02-02T07:55:22.603Z,3.78
2023-02-02T07:57:51.421Z,2.45
2023-02-02T08:00:18.672Z,2.42
2023-02-02T08:02:48.442Z,2.00
2023-02-02T08:05:15.252Z,2.85
2023-02-02T08:07:41.897Z,2.97
2023-02-02T08:10:09.340Z,2.03
2023-02-02T08:12:36.055Z,6.18
2023-02-02T08:15:02.814Z,2.65
2023-02-02T08:17:29.447Z,1.48
2023-02-02T08:19:56.121Z,3.47
2023-02-02T08:22:22.852Z,2.13
2023-02-02T08:24:49.552Z,2.60
2023-02-02T08:27:17.007Z,3.83
2023-02-02T08:29:44.175Z,5.22
2023-02-02T08:32:10.836Z,2.63
2023-02-02T08:34:37.784Z,3.92
2023-02-02T08:37:04.757Z,2.75
2023-02-02T08:39:31.450Z,5.20
2023-02-02T08:41:58.246Z,1.83
2023-02-02T08:44:26.899Z,4.95
2023-02-02T08:46:55.261Z,2.95
2023-02-02T08:49:21.970Z,3.28
2023-02-02T08:51:48.610Z,3.85
2023-02-02T08:54:15.297Z,2.53
2023-02-02T08:56:42.004Z,3.70
2023-02-02T08:59:08.725Z,3.63
2023-02-02T09:01:36.120Z,3.10
2023-02-02T09:04:07.617Z,3.67
2023-02-02T09:06:37.155Z,1.67
2023-02-02T09:09:06.441Z,3.33
2023-02-02T09:11:33.232Z,4.80
2023-02-02T09:14:02.103Z,2.80
2023-02-02T09:16:29.898Z,4.97
2023-02-02T09:18:57.416Z,2.40
2023-02-02T09:21:24.597Z,2.47
2023-02-02T09:23:53.741Z,2.80
2023-02-02T09:26:25.270Z,3.05
2023-02-02T09:28:58.001Z,3.00
2023-02-02T09:31:25.799Z,1.83
2023-02-02T09:33:52.694Z,2.92
2023-02-02T09:36:24.107Z,3.60
2023-02-02T09:38:51.493Z,3.33
2023-02-02T09:41:27.403Z,5.13
2023-02-02T09:44:06.111Z,4.60
2023-02-02T09:46:46.764Z,3.85
2023-02-02T09:49:22.600Z,4.55
2023-02-02T09:51:58.930Z,3.95
2023-02-02T09:54:36.713Z,4.20
2023-02-02T09:57:11.378Z,8.05
2023-02-02T09:59:41.530Z,5.32
2023-02-02T10:02:17.555Z,4.70
2023-02-02T10:04:49.097Z,6.85
2023-02-02T10:07:20.074Z,4.57
2023-02-02T10:09:57.870Z,5.50
2023-02-02T10:12:38.081Z,8.98
2023-02-02T10:15:32.494Z,5.53
2023-02-02T10:18:05.588Z,5.63
2023-02-02T10:20:41.428Z,5.70
2023-02-02T10:23:29.388Z,6.93
2023-02-02T10:26:22.508Z,5.00
2023-02-02T10:29:01.497Z,5.05
2023-02-02T10:31:48.954Z,6.13
2023-02-02T10:34:31.991Z,4.85
2023-02-02T10:37:02.622Z,4.00
2023-02-02T10:40:14.907Z,3.72
2023-02-02T10:43:23.521Z,3.70
2023-02-02T10:45:51.736Z,4.30
2023-02-02T10:48:27.380Z,3.08
2023-02-02T10:50:56.751Z,5.30
2023-02-02T10:53:28.736Z,4.95
2023-02-02T10:56:14.134Z,5.50
2023-02-02T10:59:06.118Z,3.92
2023-02-02T11:01:33.068Z,6.30
2023-02-02T11:04:18.287Z,4.90
2023-02-02T11:06:51.494Z,4.82
2023-02-02T11:09:21.548Z,3.17
2023-02-02T11:11:57.304Z,5.60
2023-02-02T11:14:45.205Z,6.40
2023-02-02T11:17:24.399Z,5.13
2023-02-02T11:19:52.406Z,9.15
2023-02-02T11:22:33.892Z,8.00
2023-02-02T11:25:06.949Z,6.50
2023-02-02T11:27:39.540Z,8.02
2023-02-02T11:30:35.871Z,7.32
2023-02-02T11:33:27.014Z,8.38
2023-02-02T11:35:59.530Z,7.97
2023-02-02T11:38:27.555Z,9.63
2023-02-02T11:41:09.160Z,9.48
2023-02-02T11:43:41.901Z,7.20
2023-02-02T11:46:20.393Z,8.10
2023-02-02T11:48:49.630Z,7.80
2023-02-02T11:51:23.529Z,8.02
2023-02-02T11:53:59.908Z,16.38
2023-02-02T11:56:27.246Z,8.55
2023-02-02T11:58:56.507Z,8.43
2023-02-02T12:01:35.629Z,7.43
2023-02-02T12:06:35.574Z,10.50
2023-02-02T12:09:11.999Z,6.57
2023-02-02T12:12:02.796Z,6.22
2023-02-02T12:15:08.151Z,7.70
2023-02-02T12:17:42.960Z,7.30
2023-02-02T12:20:45.772Z,7.00
2023-02-02T12:23:36.753Z,7.68
2023-02-02T12:26:09.107Z,5.40
2023-02-02T12:29:03.667Z,6.90
2023-02-02T12:31:59.212Z,7.43
2023-02-02T12:34:40.953Z,8.05
2023-02-02T12:37:27.894Z,7.53
2023-02-02T12:40:16.216Z,7.80
2023-02-02T12:43:20.569Z,9.50
2023-02-02T12:46:11.828Z,8.85
2023-02-02T12:48:41.493Z,9.32
2023-02-02T12:51:14.115Z,8.70
2023-02-02T12:54:32.546Z,9.15
2023-02-02T12:57:07.737Z,9.48
2023-02-02T13:00:06.204Z,9.45
2023-02-02T13:03:01.195Z,7.75
2023-02-02T13:06:00.858Z,9.85
2023-02-02T13:09:00.985Z,10.27
2023-02-02T13:11:52.251Z,7.53
2023-02-02T13:14:30.775Z,7.60
2023-02-02T13:17:02.390Z,9.18
2023-02-02T13:19:38.448Z,7.75
2023-02-02T13:22:08.746Z,7.68
2023-02-02T13:24:38.741Z,9.52
2023-02-02T13:27:11.140Z,8.75
2023-02-02T13:29:47.810Z,8.98
2023-02-02T13:32:19.320Z,9.00
2023-02-02T13:35:13.013Z,8.75
2023-02-02T13:37:43.265Z,7.65
2023-02-02T13:40:34.799Z,10.27
2023-02-02T13:43:34.036Z,8.57
2023-02-02T13:46:06.937Z,8.25
2023-02-02T13:48:51.723Z,9.60
2023-02-02T13:51:44.380Z,9.80
2023-02-02T13:54:27.707Z,9.23
2023-02-02T13:57:13.012Z,9.05
2023-02-02T13:59:51.664Z,7.88
2023-02-02T14:02:33.482Z,7.72
2023-02-02T14:05:03.609Z,27.67
2023-02-02T14:07:41.537Z,10.95
2023-02-02T14:10:24.251Z,28.83
2023-02-02T14:12:51.317Z,24.60
2023-02-02T14:15:18.556Z,12.38
2023-02-02T14:17:47.043Z,5.20
2023-02-02T14:20:40.594Z,5.28
2023-02-02T14:23:45.047Z,6.45
2023-02-02T14:26:11.818Z,7.03
2023-02-02T14:28:47.543Z,8.10
2023-02-02T14:31:40.856Z,8.45
2023-02-02T14:34:28.922Z,9.73
2023-02-02T14:37:28.811Z,6.93
2023-02-02T14:40:10.515Z,9.00
2023-02-02T14:43:17.489Z,6.85
2023-02-02T14:45:48.028Z,8.20
2023-02-02T14:48:20.519Z,5.72
2023-02-02T14:50:58.793Z,7.05
2023-02-02T14:53:33.626Z,6.80
2023-02-02T14:56:14.399Z,5.38
2023-02-02T14:58:48.330Z,12.88
2023-02-02T15:01:18.172Z,9.82
2023-02-02T15:03:57.394Z,6.00
2023-02-02T15:06:40.538Z,5.68
2023-02-02T15:09:23.361Z,5.80
2023-02-02T15:12:01.111Z,5.43
2023-02-02T15:14:59.379Z,5.82
2023-02-02T15:17:41.303Z,6.63
2023-02-02T15:20:28.170Z,6.47
2023-02-02T15:23:22.403Z,3.85
2023-02-02T15:25:55.024Z,4.93
2023-02-02T15:28:44.434Z,7.07
2023-02-02T15:31:11.208Z,6.28
2023-02-02T15:33:41.687Z,5.82
2023-02-02T15:36:25.386Z,5.70
2023-02-02T15:39:23.702Z,6.18
2023-02-02T15:42:11.752Z,9.07
2023-02-02T15:44:41.955Z,6.65
2023-02-02T15:47:15.742Z,7.18
2023-02-02T15:49:42.824Z,4.38
2023-02-02T15:52:21.838Z,6.15
2023-02-02T15:57:40.518Z,5.45
2023-02-02T16:00:28.053Z,6.13
2023-02-02T16:03:14.731Z,8.05
2023-02-02T16:05:48.715Z,6.75
2023-02-02T16:08:19.654Z,6.47
2023-02-02T16:10:49.330Z,6.97
2023-02-02T16:13:29.550Z,7.40
2023-02-02T16:16:01.756Z,8.20
2023-02-02T16:18:29.853Z,7.53
2023-02-02T16:20:59.503Z,7.22
2023-02-02T16:23:32.055Z,9.38
2023-02-02T16:26:00.537Z,6.88
2023-02-02T16:28:27.728Z,7.18
2023-02-02T16:30:55.291Z,8.45
2023-02-02T16:33:41.107Z,6.18
2023-02-02T16:36:25.210Z,6.05
2023-02-02T16:38:53.215Z,7.05
2023-02-02T16:41:27.464Z,6.72
2023-02-02T16:43:54.524Z,6.40
2023-02-02T16:46:45.635Z,5.53
2023-02-02T16:49:23.368Z,6.70
2023-02-02T16:52:13.064Z,7.00
2023-02-02T16:54:45.191Z,7.22
2023-02-02T16:57:21.684Z,7.18
2023-02-02T16:59:52.894Z,8.73
2023-02-02T17:02:24.446Z,8.65
2023-02-02T17:05:14.745Z,9.13
2023-02-02T17:07:48.939Z,9.35
2023-02-02T17:10:38.697Z,12.73
2023-02-02T17:13:30.422Z,10.52
2023-02-02T17:18:25.179Z,13.00
2023-02-02T17:20:57.736Z,12.75
2023-02-02T17:23:27.343Z,11.30
2023-02-02T17:25:55.043Z,12.05
2023-02-02T17:28:24.887Z,13.18
2023-02-02T17:31:12.573Z,18.17
2023-02-02T17:33:40.486Z,13.60
2023-02-02T17:36:08.184Z,13.93
2023-02-02T17:38:34.924Z,17.58
2023-02-02T17:41:03.223Z,15.30
2023-02-02T17:43:31.830Z,18.83
2023-02-02T17:45:59.246Z,14.85
2023-02-02T17:48:26.028Z,16.85
2023-02-02T17:50:52.777Z,16.63
2023-02-02T17:53:21.197Z,15.75
2023-02-02T17:55:53.324Z,15.55
2023-02-02T17:58:20.027Z,19.35
2023-02-02T18:00:51.180Z,20.20
2023-02-02T18:03:30.523Z,17.13
2023-02-02T18:06:00.513Z,18.67
2023-02-02T18:08:28.615Z,19.50
2023-02-02T18:10:55.438Z,14.88
2023-02-02T18:13:23.875Z,18.23
2023-02-02T18:15:53.928Z,21.33
2023-02-02T18:18:20.963Z,19.38
2023-02-02T18:20:50.548Z,16.98
2023-02-02T18:23:18.827Z,19.98
2023-02-02T18:25:45.989Z,20.42
2023-02-02T18:28:17.111Z,18.48
2023-02-02T18:30:44.897Z,18.13
2023-02-02T18:33:13.205Z,21.25
2023-02-02T18:35:44.544Z,19.80
2023-02-02T18:38:11.575Z,17.35
2023-02-02T18:40:38.531Z,20.42
2023-02-02T18:43:05.190Z,22.17
2023-02-02T18:45:31.860Z,18.70
2023-02-02T18:47:58.575Z,17.35
2023-02-02T18:50:25.457Z,18.38
2023-02-02T18:52:52.143Z,17.70
2023-02-02T18:55:19.093Z,24.00
2023-02-02T18:57:45.803Z,21.75
2023-02-02T19:00:13.033Z,19.20
2023-02-02T19:02:39.742Z,20.20
2023-02-02T19:05:26.489Z,19.60
2023-02-02T19:07:56.548Z,17.98
2023-02-02T19:10:25.559Z,17.73
2023-02-02T19:12:57.271Z,19.60
2023-02-02T19:15:26.609Z,18.98
2023-02-02T19:17:55.357Z,21.98
2023-02-02T19:20:27.309Z,21.48
2023-02-02T19:23:11.715Z,24.05
2023-02-02T19:25:41.145Z,19.92
2023-02-02T19:28:28.955Z,24.92
2023-02-02T19:30:58.345Z,24.83
2023-02-02T19:33:40.063Z,23.52
2023-02-02T19:36:15.290Z,20.90
2023-02-02T19:38:42.140Z,24.65
2023-02-02T19:41:20.686Z,21.27
2023-02-02T19:43:49.041Z,23.50
2023-02-02T19:46:20.803Z,21.25
2023-02-02T19:48:51.626Z,22.90
2023-02-02T19:51:37.554Z,19.45
2023-02-02T19:54:12.733Z,21.33
2023-02-02T19:56:42.204Z,22.55
2023-02-02T19:59:18.296Z,20.90
2023-02-02T20:01:47.821Z,24.40
2023-02-02T20:04:15.733Z,20.13
2023-02-02T20:06:57.129Z,24.10
2023-02-02T20:09:29.727Z,21.38
2023-02-02T20:11:56.660Z,20.60
2023-02-02T20:14:32.311Z,20.88
2023-02-02T20:17:08.241Z,22.98
2023-02-02T20:19:41.355Z,23.50
2023-02-02T20:22:34.564Z,26.25
2023-02-02T20:25:06.335Z,25.77
2023-02-02T20:27:34.042Z,25.33
2023-02-02T20:30:18.341Z,24.50
2023-02-02T20:32:51.071Z,22.35
2023-02-02T20:35:37.152Z,26.92
2023-02-02T20:38:24.700Z,24.23
2023-02-02T20:40:52.170Z,26.45
2023-02-02T20:43:18.817Z,23.77
2023-02-02T20:45:45.928Z,27.83
2023-02-02T20:48:12.907Z,23.45
2023-02-02T20:50:40.346Z,25.55
2023-02-02T20:53:07.121Z,25.42
2023-02-02T20:55:36.150Z,24.52
2023-02-02T20:58:06.192Z,25.92
2023-02-02T21:00:33.038Z,29.83
2023-02-02T21:02:59.773Z,24.27
2023-02-02T21:05:26.645Z,28.02
2023-02-02T21:07:54.936Z,25.77
2023-02-02T21:10:27.262Z,27.05
2023-02-02T21:12:54.726Z,25.85
2023-02-02T21:15:21.418Z,23.02
2023-02-02T21:17:48.055Z,24.83
2023-02-02T21:20:15.153Z,21.52
2023-02-02T21:22:41.849Z,24.50
2023-02-02T21:25:09.290Z,26.15
2023-02-02T21:27:36.305Z,25.05
2023-02-02T21:30:03.686Z,22.75
2023-02-02T21:32:30.406Z,21.08
2023-02-02T21:34:58.846Z,19.15
2023-02-02T21:37:25.489Z,19.70
2023-02-02T21:39:57.617Z,24.58
2023-02-02T21:42:26.021Z,22.13
2023-02-02T21:44:57.300Z,18.77
2023-02-02T21:47:32.296Z,20.50
2023-02-02T21:50:22.479Z,25.00
2023-02-02T21:52:49.481Z,19.13
2023-02-02T21:55:34.575Z,20.92
2023-02-02T21:58:14.018Z,18.88
2023-02-02T22:00:40.883Z,21.75
2023-02-02T22:03:28.090Z,18.30
2023-02-02T22:06:21.079Z,22.92
2023-02-02T22:08:49.238Z,19.58
2023-02-02T22:11:29.377Z,20.63
2023-02-02T22:14:13.565Z,20.10
2023-02-02T22:16:45.351Z,19.27
2023-02-02T22:19:25.185Z,20.85
2023-02-02T22:21:52.445Z,19.38
2023-02-02T22:24:19.187Z,20.13
2023-02-02T22:26:47.573Z,21.40
2023-02-02T22:29:17.821Z,18.83
2023-02-02T22:31:44.517Z,24.30
2023-02-02T22:34:11.201Z,21.00
2023-02-02T22:36:38.136Z,18.80
2023-02-02T22:39:05.322Z,20.13
2023-02-02T22:41:32.097Z,16.60
2023-02-02T22:43:58.777Z,16.80
2023-02-02T22:46:25.440Z,15.32
2023-02-02T22:48:52.105Z,15.85
2023-02-02T22:51:18.772Z,12.73
2023-02-02T22:53:45.549Z,14.20
2023-02-02T22:56:12.219Z,14.73
2023-02-02T22:58:39.273Z,13.63
2023-02-02T23:01:05.969Z,14.52
2023-02-02T23:03:32.736Z,15.25
2023-02-02T23:05:59.429Z,13.57
2023-02-02T23:08:26.114Z,14.60
2023-02-02T23:10:52.840Z,14.75
2023-02-02T23:13:20.268Z,15.75
2023-02-02T23:15:46.910Z,12.63
2023-02-02T23:18:13.589Z,14.65
2023-02-02T23:20:40.284Z,14.50
2023-02-02T23:23:06.987Z,15.65
2023-02-02T23:25:33.674Z,16.98
2023-02-02T23:28:00.378Z,17.95
2023-02-02T23:30:27.327Z,16.92
2023-02-02T23:32:54.150Z,15.60
2023-02-02T23:35:20.872Z,16.52
2023-02-02T23:37:47.805Z,14.18
2023-02-02T23:40:14.501Z,15.00
2023-02-02T23:42:41.196Z,17.10
2023-02-02T23:45:08.344Z,15.85
2023-02-02T23:47:35.168Z,18.15
2023-02-02T23:50:07.325Z,16.95
2023-02-02T23:52:34.802Z,17.48
2023-02-02T23:55:02.371Z,19.55
2023-02-02T23:57:29.467Z,19.30
2023-02-02T23:59:56.295Z,19.85
